createdAt,value
2022-10-30T00:01:48.256Z,9.50
2022-10-30T00:04:15.668Z,9.40
2022-10-30T00:06:42.683Z,14.30
2022-10-30T00:09:10.794Z,9.00
2022-10-30T00:11:37.834Z,11.20
2022-10-30T00:14:04.930Z,10.50
2022-10-30T00:16:31.873Z,12.80
2022-10-30T00:18:59.016Z,10.20
2022-10-30T00:21:26.226Z,12.10
2022-10-30T00:23:53.992Z,9.20
2022-10-30T00:26:22.031Z,10.60
2022-10-30T00:28:53.617Z,11.40
2022-10-30T00:31:21.178Z,9.60
2022-10-30T00:33:52.351Z,11.10
2022-10-30T00:36:19.883Z,16.90
2022-10-30T00:38:46.975Z,9.60
2022-10-30T00:41:19.238Z,10.70
2022-10-30T00:43:46.863Z,7.70
2022-10-30T00:46:26.089Z,13.00
2022-10-30T00:48:56.786Z,9.10
2022-10-30T00:51:23.919Z,8.10
2022-10-30T00:53:51.022Z,12.20
2022-10-30T00:56:19.762Z,11.20
2022-10-30T00:58:53.192Z,11.50
2022-10-30T01:03:49.401Z,13.60
2022-10-30T01:06:18.284Z,9.80
2022-10-30T01:08:45.823Z,8.80
2022-10-30T01:11:13.087Z,9.80
2022-10-30T01:13:41.426Z,10.50
2022-10-30T01:16:34.600Z,10.80
2022-10-30T01:19:30.203Z,14.50
2022-10-30T01:22:21.935Z,10.10
2022-10-30T01:25:08.066Z,11.30
2022-10-30T01:28:06.769Z,9.70
2022-10-30T01:30:41.211Z,9.40
2022-10-30T01:33:33.270Z,12.50
2022-10-30T01:36:22.690Z,12.50
2022-10-30T01:39:03.021Z,8.40
2022-10-30T01:41:30.356Z,10.40
2022-10-30T01:44:01.751Z,9.30
2022-10-30T01:47:11.663Z,13.70
2022-10-30T01:49:41.981Z,9.00
2022-10-30T01:52:39.952Z,12.90
2022-10-30T01:55:21.644Z,13.50
2022-10-30T01:58:02.723Z,13.50
2022-10-30T02:00:29.765Z,11.60
2022-10-30T02:02:57.192Z,7.50
2022-10-30T02:05:36.973Z,10.90
2022-10-30T02:08:04.028Z,12.20
2022-10-30T02:10:31.992Z,12.30
2022-10-30T02:12:59.337Z,12.10
2022-10-30T02:15:26.385Z,13.80
2022-10-30T02:17:55.259Z,13.60
2022-10-30T02:20:22.584Z,11.40
2022-10-30T02:22:53.034Z,10.00
2022-10-30T02:25:23.488Z,8.80
2022-10-30T02:27:50.533Z,9.40
2022-10-30T02:30:17.652Z,11.20
2022-10-30T02:32:44.837Z,10.10
2022-10-30T02:35:12.822Z,12.90
2022-10-30T02:37:40.360Z,11.20
2022-10-30T02:40:08.631Z,11.00
2022-10-30T02:42:36.108Z,13.60
2022-10-30T02:45:03.857Z,14.50
2022-10-30T02:47:30.852Z,11.90
2022-10-30T02:49:57.855Z,13.90
2022-10-30T02:52:26.297Z,10.00
2022-10-30T02:54:53.378Z,14.00
2022-10-30T02:57:20.410Z,10.20
2022-10-30T02:59:47.491Z,12.30
2022-10-30T03:02:14.922Z,15.50
2022-10-30T03:04:42.115Z,10.50
2022-10-30T03:07:11.512Z,15.30
2022-10-30T03:09:38.631Z,9.70
2022-10-30T03:12:05.951Z,12.20
2022-10-30T03:14:33.138Z,10.40
2022-10-30T03:17:00.429Z,9.80
2022-10-30T03:19:27.460Z,11.90
2022-10-30T03:21:55.077Z,13.50
2022-10-30T03:24:22.162Z,10.60
2022-10-30T03:26:49.703Z,9.00
2022-10-30T03:29:16.993Z,6.70
2022-10-30T03:31:44.107Z,17.40
2022-10-30T03:34:14.528Z,12.50
2022-10-30T03:36:42.013Z,8.00
2022-10-30T03:39:09.240Z,10.30
2022-10-30T03:41:36.557Z,15.30
2022-10-30T03:44:03.744Z,11.20
2022-10-30T03:46:31.817Z,10.90
2022-10-30T03:49:11.053Z,7.70
2022-10-30T03:51:38.244Z,13.60
2022-10-30T03:54:06.686Z,16.30
2022-10-30T03:56:33.790Z,10.50
2022-10-30T03:59:00.977Z,13.20
2022-10-30T04:01:28.316Z,12.10
2022-10-30T04:03:56.833Z,9.20
2022-10-30T04:06:24.996Z,11.70
2022-10-30T04:08:55.091Z,13.50
2022-10-30T04:11:23.664Z,13.00
2022-10-30T04:13:51.051Z,8.40
2022-10-30T04:16:18.228Z,9.50
2022-10-30T04:18:45.341Z,20.20
2022-10-30T04:21:12.390Z,10.80
2022-10-30T04:23:39.746Z,9.70
2022-10-30T04:26:06.986Z,13.40
2022-10-30T04:28:36.851Z,10.20
2022-10-30T04:31:04.168Z,17.70
2022-10-30T04:33:31.832Z,12.40
2022-10-30T04:35:59.431Z,10.30
2022-10-30T04:38:26.432Z,7.60
2022-10-30T04:40:53.435Z,12.00
2022-10-30T04:43:20.734Z,13.90
2022-10-30T04:45:50.544Z,13.60
2022-10-30T04:48:18.435Z,11.10
2022-10-30T04:50:47.013Z,16.00
2022-10-30T04:53:21.513Z,11.40
2022-10-30T04:55:53.953Z,16.70
2022-10-30T04:58:21.138Z,11.50
2022-10-30T05:00:52.418Z,11.60
2022-10-30T05:03:21.934Z,16.50
2022-10-30T05:05:49.710Z,13.30
2022-10-30T05:08:16.802Z,15.90
2022-10-30T05:10:43.883Z,16.30
2022-10-30T05:13:12.552Z,10.10
2022-10-30T05:15:39.723Z,11.90
2022-10-30T05:18:06.757Z,13.10
2022-10-30T05:20:33.762Z,11.60
2022-10-30T05:23:00.941Z,9.90
2022-10-30T05:25:28.008Z,9.80
2022-10-30T05:28:03.592Z,13.10
2022-10-30T05:30:33.645Z,11.00
2022-10-30T05:33:02.285Z,11.20
2022-10-30T05:35:29.843Z,12.00
2022-10-30T05:37:58.181Z,7.60
2022-10-30T05:40:25.629Z,8.70
2022-10-30T05:42:53.106Z,8.60
2022-10-30T05:45:20.637Z,11.70
2022-10-30T05:48:04.788Z,13.60
2022-10-30T05:50:35.213Z,10.40
2022-10-30T05:53:16.835Z,6.40
2022-10-30T05:55:44.209Z,8.70
2022-10-30T05:58:16.639Z,10.20
2022-10-30T06:00:44.937Z,9.50
2022-10-30T06:03:14.038Z,10.10
2022-10-30T06:05:45.047Z,11.20
2022-10-30T06:08:13.005Z,12.60
2022-10-30T06:10:40.008Z,11.20
2022-10-30T06:13:30.023Z,8.10
2022-10-30T06:16:00.906Z,9.50
2022-10-30T06:18:41.984Z,9.60
2022-10-30T06:21:11.464Z,8.10
2022-10-30T06:23:48.751Z,10.20
2022-10-30T06:26:47.916Z,10.20
2022-10-30T06:29:16.228Z,7.50
2022-10-30T06:31:43.364Z,8.60
2022-10-30T06:34:10.379Z,11.00
2022-10-30T06:36:39.881Z,8.10
2022-10-30T06:39:07.121Z,9.90
2022-10-30T06:41:41.322Z,11.90
2022-10-30T06:44:28.721Z,8.80
2022-10-30T06:46:55.946Z,8.20
2022-10-30T06:49:23.424Z,7.60
2022-10-30T06:51:51.453Z,8.80
2022-10-30T06:54:18.575Z,9.70
2022-10-30T06:57:05.590Z,10.50
2022-10-30T07:00:00.337Z,7.50
2022-10-30T07:03:01.219Z,9.40
2022-10-30T07:05:29.685Z,8.20
2022-10-30T07:07:57.964Z,12.70
2022-10-30T07:10:25.073Z,8.50
2022-10-30T07:13:17.303Z,6.40
2022-10-30T07:15:53.411Z,9.90
2022-10-30T07:18:24.153Z,9.00
2022-10-30T07:20:58.376Z,6.40
2022-10-30T07:23:26.581Z,9.40
2022-10-30T07:26:03.861Z,9.30
2022-10-30T07:28:36.216Z,7.60
2022-10-30T07:31:41.479Z,5.80
2022-10-30T07:34:10.009Z,5.40
2022-10-30T07:37:00.109Z,8.10
2022-10-30T07:39:43.427Z,7.20
2022-10-30T07:42:23.182Z,8.10
2022-10-30T07:48:15.429Z,7.80
2022-10-30T07:50:48.320Z,10.10
2022-10-30T07:53:15.574Z,6.90
2022-10-30T07:55:43.300Z,6.30
2022-10-30T07:58:13.001Z,6.90
2022-10-30T08:01:12.493Z,7.50
2022-10-30T08:03:39.674Z,4.30
2022-10-30T08:06:24.640Z,8.30
2022-10-30T08:08:54.243Z,5.50
2022-10-30T08:11:26.679Z,6.80
2022-10-30T08:13:54.204Z,13.20
2022-10-30T08:16:21.385Z,5.90
2022-10-30T08:18:49.354Z,8.30
2022-10-30T08:21:18.516Z,9.90
2022-10-30T08:23:54.515Z,9.50
2022-10-30T08:26:22.548Z,6.10
2022-10-30T08:28:49.694Z,6.60
2022-10-30T08:31:16.791Z,5.70
2022-10-30T08:34:04.833Z,7.10
2022-10-30T08:36:51.214Z,7.80
2022-10-30T08:39:19.203Z,5.40
2022-10-30T08:42:06.630Z,6.90
2022-10-30T08:44:39.079Z,7.70
2022-10-30T08:47:24.981Z,6.90
2022-10-30T08:49:52.097Z,6.80
2022-10-30T08:52:21.807Z,7.50
2022-10-30T08:54:54.478Z,9.20
2022-10-30T08:57:23.788Z,6.30
2022-10-30T08:59:51.341Z,6.60
2022-10-30T09:02:47.725Z,5.10
2022-10-30T09:05:33.189Z,6.90
2022-10-30T09:08:23.856Z,11.50
2022-10-30T09:11:06.056Z,8.30
2022-10-30T09:13:33.241Z,4.80
2022-10-30T09:16:01.799Z,5.40
2022-10-30T09:18:30.068Z,6.80
2022-10-30T09:20:57.627Z,5.60
2022-10-30T09:23:25.295Z,5.90
2022-10-30T09:25:58.427Z,5.90
2022-10-30T09:28:44.256Z,5.90
2022-10-30T09:31:31.516Z,11.20
2022-10-30T09:33:58.833Z,5.70
2022-10-30T09:36:38.782Z,6.60
2022-10-30T09:39:05.943Z,4.30
2022-10-30T09:42:17.993Z,7.60
2022-10-30T09:45:27.340Z,9.60
2022-10-30T09:48:27.004Z,5.80
2022-10-30T09:51:06.280Z,3.40
2022-10-30T09:54:03.096Z,8.40
2022-10-30T09:56:46.302Z,8.30
2022-10-30T10:00:03.885Z,6.80
2022-10-30T10:02:34.638Z,6.90
2022-10-30T10:05:06.488Z,6.20
2022-10-30T10:08:09.149Z,7.90
2022-10-30T10:10:58.387Z,8.70
2022-10-30T10:13:33.361Z,6.80
2022-10-30T10:16:20.982Z,5.20
2022-10-30T10:18:54.031Z,6.70
2022-10-30T10:21:25.914Z,6.70
2022-10-30T10:23:55.850Z,5.20
2022-10-30T10:26:47.887Z,8.50
2022-10-30T10:29:36.540Z,4.60
2022-10-30T10:32:12.961Z,5.30
2022-10-30T10:34:52.702Z,4.40
2022-10-30T10:37:54.158Z,6.40
2022-10-30T10:40:46.498Z,6.00
2022-10-30T10:43:38.732Z,3.60
2022-10-30T10:46:41.529Z,5.60
2022-10-30T10:49:27.678Z,4.30
2022-10-30T10:52:02.926Z,4.10
2022-10-30T10:54:31.345Z,4.90
2022-10-30T10:57:00.021Z,2.40
2022-10-30T10:59:39.252Z,4.20
2022-10-30T11:02:06.403Z,6.80
2022-10-30T11:04:37.547Z,3.10
2022-10-30T11:07:23.316Z,6.00
2022-10-30T11:09:54.602Z,4.70
2022-10-30T11:12:27.565Z,9.40
2022-10-30T11:14:59.694Z,4.70
2022-10-30T11:17:32.917Z,3.90
2022-10-30T11:20:02.227Z,4.80
2022-10-30T11:22:33.890Z,5.00
2022-10-30T11:25:23.069Z,4.50
2022-10-30T11:28:00.024Z,5.00
2022-10-30T11:30:28.793Z,5.80
2022-10-30T11:32:58.192Z,3.40
2022-10-30T11:35:25.451Z,5.10
2022-10-30T11:38:12.243Z,7.10
2022-10-30T11:40:41.265Z,3.60
2022-10-30T11:43:08.836Z,6.40
2022-10-30T11:45:41.100Z,9.00
2022-10-30T11:48:21.018Z,2.90
2022-10-30T11:50:49.415Z,4.60
2022-10-30T11:53:31.551Z,4.80
2022-10-30T11:55:58.903Z,2.20
2022-10-30T11:58:33.627Z,7.50
2022-10-30T12:01:13.367Z,3.50
2022-10-30T12:03:41.634Z,6.60
2022-10-30T12:06:09.704Z,5.70
2022-10-30T12:08:36.854Z,3.80
2022-10-30T12:11:05.190Z,6.30
2022-10-30T12:13:39.808Z,4.70
2022-10-30T12:16:18.097Z,5.00
2022-10-30T12:18:54.618Z,7.10
2022-10-30T12:21:21.795Z,4.40
2022-10-30T12:23:58.156Z,5.30
2022-10-30T12:26:25.505Z,4.40
2022-10-30T12:28:58.806Z,5.60
2022-10-30T12:31:43.153Z,3.60
2022-10-30T12:34:25.378Z,5.20
2022-10-30T12:36:55.778Z,6.00
2022-10-30T12:39:27.066Z,9.40
2022-10-30T12:41:58.795Z,6.60
2022-10-30T12:44:32.635Z,4.70
2022-10-30T12:47:13.978Z,6.20
2022-10-30T12:52:50.913Z,1.90
2022-10-30T12:55:21.690Z,5.10
2022-10-30T12:58:04.345Z,4.40
2022-10-30T13:00:32.497Z,5.10
2022-10-30T13:03:15.004Z,3.20
2022-10-30T13:05:45.844Z,5.10
2022-10-30T13:08:15.479Z,7.60
2022-10-30T13:10:45.587Z,5.70
2022-10-30T13:13:19.187Z,6.40
2022-10-30T13:15:57.074Z,2.40
2022-10-30T13:18:25.577Z,5.70
2022-10-30T13:21:04.385Z,3.70
2022-10-30T13:23:37.915Z,5.10
2022-10-30T13:26:17.520Z,4.80
2022-10-30T13:28:56.092Z,7.20
2022-10-30T13:31:30.771Z,3.50
2022-10-30T13:34:03.489Z,4.40
2022-10-30T13:36:56.940Z,3.90
2022-10-30T13:40:01.223Z,3.70
2022-10-30T13:45:06.806Z,6.40
2022-10-30T13:47:45.138Z,4.50
2022-10-30T13:50:25.162Z,7.50
2022-10-30T13:52:55.154Z,5.60
2022-10-30T13:55:27.652Z,6.60
2022-10-30T13:58:01.323Z,4.30
2022-10-30T14:03:14.131Z,3.30
2022-10-30T14:06:04.378Z,4.40
2022-10-30T14:08:46.931Z,7.40
2022-10-30T14:11:14.237Z,3.80
2022-10-30T14:13:46.923Z,3.20
2022-10-30T14:16:46.695Z,4.50
2022-10-30T14:19:14.910Z,3.90
2022-10-30T14:21:55.393Z,9.40
2022-10-30T14:24:30.419Z,5.40
2022-10-30T14:27:03.907Z,3.60
2022-10-30T14:32:01.173Z,6.80
2022-10-30T14:34:40.824Z,7.20
2022-10-30T14:37:07.825Z,6.70
2022-10-30T14:39:45.073Z,7.80
2022-10-30T14:42:25.340Z,5.00
2022-10-30T14:45:11.302Z,6.30
2022-10-30T14:47:52.268Z,5.80
2022-10-30T14:50:19.433Z,4.70
2022-10-30T14:52:59.656Z,4.10
2022-10-30T14:55:32.356Z,4.30
2022-10-30T14:58:02.661Z,6.30
2022-10-30T15:00:34.935Z,4.00
2022-10-30T15:03:20.394Z,4.10
2022-10-30T15:05:51.811Z,7.90
2022-10-30T15:08:53.150Z,6.40
2022-10-30T15:11:26.274Z,4.30
2022-10-30T15:13:59.303Z,4.50
2022-10-30T15:16:28.095Z,7.50
2022-10-30T15:19:02.111Z,3.30
2022-10-30T15:21:31.275Z,3.10
2022-10-30T15:23:59.201Z,4.30
2022-10-30T15:26:33.136Z,6.80
2022-10-30T15:29:00.539Z,7.10
2022-10-30T15:31:28.612Z,4.30
2022-10-30T15:33:55.745Z,4.80
2022-10-30T15:36:24.700Z,6.30
2022-10-30T15:39:12.079Z,4.20
2022-10-30T15:41:48.439Z,2.40
2022-10-30T15:44:21.457Z,3.20
2022-10-30T15:46:50.267Z,5.00
2022-10-30T15:49:21.605Z,4.10
2022-10-30T15:51:48.650Z,6.10
2022-10-30T15:54:19.426Z,3.40
2022-10-30T15:57:17.951Z,4.80
2022-10-30T15:59:35.557Z,2.90
2022-10-30T16:02:02.767Z,4.30
2022-10-30T16:04:36.413Z,3.90
2022-10-30T16:07:16.827Z,6.40
2022-10-30T16:09:53.083Z,5.30
2022-10-30T16:12:21.106Z,4.90
2022-10-30T16:14:48.146Z,2.90
2022-10-30T16:17:16.519Z,3.10
2022-10-30T16:19:48.732Z,3.70
2022-10-30T16:22:20.577Z,6.50
2022-10-30T16:24:48.007Z,4.50
2022-10-30T16:27:17.203Z,3.20
2022-10-30T16:29:45.653Z,4.30
2022-10-30T16:32:15.947Z,5.60
2022-10-30T16:34:43.092Z,8.70
2022-10-30T16:37:14.969Z,5.80
2022-10-30T16:39:42.068Z,6.60
2022-10-30T16:42:22.126Z,7.40
2022-10-30T16:44:49.435Z,3.40
2022-10-30T16:47:16.931Z,6.00
2022-10-30T16:49:48.638Z,7.00
2022-10-30T16:52:17.293Z,9.40
2022-10-30T16:55:07.604Z,3.70
2022-10-30T16:57:41.886Z,5.80
2022-10-30T17:00:25.934Z,6.40
2022-10-30T17:02:55.717Z,5.40
2022-10-30T17:05:37.264Z,6.40
2022-10-30T17:08:25.369Z,4.70
2022-10-30T17:10:59.911Z,3.60
2022-10-30T17:13:42.942Z,8.40
2022-10-30T17:18:41.005Z,3.50
2022-10-30T17:21:10.777Z,6.70
2022-10-30T17:23:37.960Z,4.40
2022-10-30T17:26:09.820Z,5.80
2022-10-30T17:28:37.293Z,4.50
2022-10-30T17:31:23.404Z,4.80
2022-10-30T17:34:02.846Z,8.50
2022-10-30T17:36:29.976Z,8.00
2022-10-30T17:38:56.985Z,4.50
2022-10-30T17:41:26.833Z,7.10
2022-10-30T17:43:55.816Z,3.40
2022-10-30T17:46:23.889Z,5.20
2022-10-30T17:48:51.141Z,9.40
2022-10-30T17:51:18.597Z,5.40
2022-10-30T17:53:49.226Z,5.40
2022-10-30T17:56:25.750Z,5.30
2022-10-30T17:58:52.944Z,5.30
2022-10-30T18:01:25.025Z,9.20
2022-10-30T18:03:53.294Z,2.80
2022-10-30T18:06:22.591Z,4.10
2022-10-30T18:08:50.943Z,4.40
2022-10-30T18:11:22.324Z,6.40
2022-10-30T18:13:50.382Z,6.90
2022-10-30T18:16:18.386Z,4.90
2022-10-30T18:18:45.704Z,6.50
2022-10-30T18:21:16.550Z,4.90
2022-10-30T18:23:58.997Z,7.80
2022-10-30T18:26:27.072Z,5.60
2022-10-30T18:28:54.377Z,4.40
2022-10-30T18:31:23.161Z,7.20
2022-10-30T18:33:50.457Z,6.10
2022-10-30T18:36:19.422Z,7.50
2022-10-30T18:38:46.826Z,4.10
2022-10-30T18:41:15.704Z,3.90
2022-10-30T18:43:46.641Z,5.20
2022-10-30T18:46:14.987Z,5.60
2022-10-30T18:48:42.137Z,4.90
2022-10-30T18:51:23.506Z,7.60
2022-10-30T18:53:53.827Z,10.00
2022-10-30T18:56:24.322Z,4.20
2022-10-30T18:58:54.857Z,5.40
2022-10-30T19:01:26.306Z,3.60
2022-10-30T19:03:53.488Z,4.40
2022-10-30T19:06:22.476Z,6.40
2022-10-30T19:08:49.624Z,4.00
2022-10-30T19:11:22.008Z,7.10
2022-10-30T19:13:52.015Z,7.60
2022-10-30T19:16:19.391Z,3.50
2022-10-30T19:18:47.161Z,4.30
2022-10-30T19:21:25.925Z,4.50
2022-10-30T19:23:54.755Z,6.60
2022-10-30T19:26:21.760Z,3.70
2022-10-30T19:28:48.839Z,5.60
2022-10-30T19:31:19.482Z,9.00
2022-10-30T19:33:50.034Z,4.40
2022-10-30T19:36:34.106Z,9.30
2022-10-30T19:39:08.580Z,6.10
2022-10-30T19:41:37.520Z,5.30
2022-10-30T19:44:04.799Z,5.00
2022-10-30T19:46:31.884Z,8.10
2022-10-30T19:48:59.865Z,6.50
2022-10-30T19:51:28.287Z,5.70
2022-10-30T19:53:55.562Z,3.80
2022-10-30T19:56:22.695Z,4.60
2022-10-30T19:58:50.213Z,6.40
2022-10-30T20:01:18.757Z,6.60
2022-10-30T20:03:46.066Z,6.90
2022-10-30T20:06:14.788Z,8.40
2022-10-30T20:08:42.143Z,4.30
2022-10-30T20:11:09.207Z,5.00
2022-10-30T20:13:37.496Z,4.60
2022-10-30T20:16:05.595Z,6.70
2022-10-30T20:18:34.556Z,6.40
2022-10-30T20:21:03.631Z,4.80
2022-10-30T20:23:31.294Z,5.80
2022-10-30T20:26:02.945Z,4.10
2022-10-30T20:28:35.541Z,4.70
2022-10-30T20:31:02.706Z,4.30
2022-10-30T20:33:30.032Z,10.00
2022-10-30T20:35:57.157Z,6.40
2022-10-30T20:38:26.522Z,5.20
2022-10-30T20:40:53.830Z,5.50
2022-10-30T20:43:28.458Z,4.60
2022-10-30T20:45:55.546Z,5.20
2022-10-30T20:48:22.652Z,5.30
2022-10-30T20:50:52.720Z,5.90
2022-10-30T20:53:19.682Z,5.60
2022-10-30T20:55:46.653Z,8.90
2022-10-30T20:58:13.938Z,4.70
2022-10-30T21:00:42.218Z,9.10
2022-10-30T21:03:10.563Z,3.40
2022-10-30T21:05:43.713Z,10.30
2022-10-30T21:08:12.751Z,6.00
2022-10-30T21:10:40.217Z,5.20
2022-10-30T21:13:09.889Z,5.70
2022-10-30T21:15:41.775Z,6.00
2022-10-30T21:18:09.425Z,11.10
2022-10-30T21:20:37.066Z,8.10
2022-10-30T21:23:04.765Z,6.20
2022-10-30T21:25:32.750Z,4.80
2022-10-30T21:28:00.507Z,3.30
2022-10-30T21:30:28.032Z,5.90
2022-10-30T21:32:55.119Z,5.40
2022-10-30T21:35:22.245Z,8.20
2022-10-30T21:37:49.535Z,7.60
2022-10-30T21:40:16.651Z,8.00
2022-10-30T21:42:43.702Z,3.40
2022-10-30T21:45:10.749Z,4.00
2022-10-30T21:47:37.997Z,5.30
2022-10-30T21:50:07.684Z,7.50
2022-10-30T21:52:35.076Z,8.10
2022-10-30T21:55:02.158Z,4.50
2022-10-30T21:57:29.763Z,4.20
2022-10-30T21:59:58.916Z,5.10
2022-10-30T22:02:31.517Z,4.10
2022-10-30T22:04:58.605Z,4.80
2022-10-30T22:07:25.741Z,4.80
2022-10-30T22:09:53.762Z,6.90
2022-10-30T22:12:20.865Z,7.40
2022-10-30T22:14:47.815Z,6.10
2022-10-30T22:17:14.862Z,3.40
2022-10-30T22:19:41.885Z,6.50
2022-10-30T22:22:09.417Z,4.70
2022-10-30T22:24:36.505Z,4.40
2022-10-30T22:27:03.743Z,3.30
2022-10-30T22:29:30.723Z,4.00
2022-10-30T22:31:57.806Z,4.40
2022-10-30T22:34:24.759Z,4.50
2022-10-30T22:36:51.846Z,4.80
2022-10-30T22:39:18.919Z,4.30
2022-10-30T22:41:45.946Z,3.10
2022-10-30T22:44:14.163Z,3.10
2022-10-30T22:46:41.136Z,7.00
2022-10-30T22:49:08.411Z,7.50
2022-10-30T22:51:36.804Z,4.40
2022-10-30T22:54:05.496Z,5.40
2022-10-30T22:56:33.650Z,4.90
2022-10-30T22:59:01.661Z,3.60
2022-10-30T23:01:30.223Z,7.20
2022-10-30T23:03:58.728Z,4.60
2022-10-30T23:06:26.553Z,7.60
2022-10-30T23:08:54.414Z,5.20
2022-10-30T23:11:22.484Z,8.00
2022-10-30T23:13:49.552Z,6.80
2022-10-30T23:16:18.397Z,3.30
2022-10-30T23:18:45.582Z,7.20
2022-10-30T23:21:14.668Z,6.50
2022-10-30T23:23:42.007Z,5.10
2022-10-30T23:26:14.532Z,6.40
2022-10-30T23:28:41.750Z,4.70
2022-10-30T23:31:20.068Z,4.10
2022-10-30T23:33:50.925Z,2.10
2022-10-30T23:36:18.352Z,6.10
2022-10-30T23:38:45.889Z,3.50
2022-10-30T23:41:12.983Z,14.20
2022-10-30T23:43:40.212Z,4.30
2022-10-30T23:46:07.213Z,5.30
2022-10-30T23:48:34.213Z,3.70
2022-10-30T23:51:06.455Z,7.70
2022-10-30T23:53:33.525Z,4.80
2022-10-30T23:56:00.583Z,6.30
2022-10-30T23:58:27.654Z,3.30
